createdAt,value
2022-09-20T00:04:41.739Z,14.50
2022-09-20T00:09:43.947Z,14.50
2022-09-20T00:14:46.061Z,14.50
2022-09-20T00:19:48.166Z,14.40
2022-09-20T00:24:50.255Z,14.40
2022-09-20T00:29:53.471Z,14.40
2022-09-20T00:35:13.641Z,14.40
2022-09-20T00:40:20.360Z,14.30
2022-09-20T00:45:26.699Z,14.30
2022-09-20T00:50:41.845Z,14.30
2022-09-20T00:55:51.480Z,14.30
2022-09-20T01:00:56.558Z,14.30
2022-09-20T01:06:06.695Z,14.30
2022-09-20T01:11:09.018Z,14.30
2022-09-20T01:16:13.647Z,14.30
2022-09-20T01:21:18.217Z,14.40
2022-09-20T01:26:29.593Z,14.40
2022-09-20T01:31:40.677Z,14.40
2022-09-20T01:36:58.009Z,14.50
2022-09-20T01:42:06.491Z,14.50
2022-09-20T01:47:11.317Z,14.40
2022-09-20T02:03:13.154Z,14.10
2022-09-20T02:08:33.147Z,14.10
2022-09-20T02:13:48.472Z,14.00
2022-09-20T02:19:05.581Z,13.90
2022-09-20T02:24:19.994Z,13.90
2022-09-20T02:29:31.151Z,13.70
2022-09-20T02:34:43.348Z,13.70
2022-09-20T02:40:06.729Z,13.70
2022-09-20T02:45:27.570Z,13.60
2022-09-20T02:50:51.393Z,13.60
2022-09-20T02:55:56.355Z,13.60
2022-09-20T03:01:17.719Z,13.50
2022-09-20T03:06:37.677Z,13.40
2022-09-20T03:11:57.989Z,13.40
2022-09-20T03:17:18.241Z,13.40
2022-09-20T03:22:44.151Z,13.40
2022-09-20T03:28:19.205Z,13.30
2022-09-20T03:33:39.605Z,13.40
2022-09-20T03:39:11.403Z,13.40
2022-09-20T03:44:44.485Z,13.40
2022-09-20T03:50:11.973Z,13.30
2022-09-20T03:55:31.934Z,13.20
2022-09-20T04:00:52.925Z,13.10
2022-09-20T04:06:18.596Z,13.10
2022-09-20T04:11:40.801Z,12.90
2022-09-20T04:17:08.606Z,12.90
2022-09-20T04:22:10.989Z,12.80
2022-09-20T04:27:19.579Z,12.90
2022-09-20T04:33:03.075Z,12.60
2022-09-20T04:38:12.385Z,12.40
2022-09-20T04:43:51.112Z,12.40
2022-09-20T04:49:31.482Z,12.30
2022-09-20T05:00:12.825Z,12.20
2022-09-20T05:10:51.065Z,12.20
2022-09-20T05:16:23.434Z,12.20
2022-09-20T05:21:58.029Z,12.30
2022-09-20T05:27:33.496Z,12.40
2022-09-20T05:32:48.549Z,12.90
2022-09-20T05:38:11.462Z,12.50
2022-09-20T05:43:28.669Z,12.60
2022-09-20T05:49:08.336Z,12.70
2022-09-20T05:54:30.022Z,12.90
2022-09-20T05:59:42.138Z,13.00
2022-09-20T06:05:11.857Z,13.20
2022-09-20T06:10:43.386Z,13.30
2022-09-20T06:15:58.912Z,13.40
2022-09-20T06:21:09.129Z,13.50
2022-09-20T06:26:20.028Z,13.70
2022-09-20T06:31:22.245Z,13.80
2022-09-20T06:36:50.327Z,14.00
2022-09-20T06:41:53.651Z,14.10
2022-09-20T06:46:55.836Z,14.20
2022-09-20T06:51:58.760Z,14.30
2022-09-20T06:57:04.298Z,14.40
2022-09-20T07:02:08.103Z,14.40
2022-09-20T07:07:16.673Z,14.70
2022-09-20T07:12:19.071Z,14.70
2022-09-20T07:17:22.289Z,14.90
2022-09-20T07:22:24.502Z,15.00
2022-09-20T07:27:29.332Z,15.20
2022-09-20T07:32:31.838Z,15.40
2022-09-20T07:37:36.958Z,15.60
2022-09-20T07:42:39.706Z,15.90
2022-09-20T07:47:44.768Z,16.10
2022-09-20T07:52:47.050Z,16.40
2022-09-20T07:57:49.639Z,16.70
2022-09-20T08:02:59.103Z,16.70
2022-09-20T08:08:01.585Z,17.00
2022-09-20T08:18:28.016Z,17.20
2022-09-20T08:23:30.117Z,17.40
2022-09-20T08:28:33.716Z,17.60
2022-09-20T08:33:37.955Z,17.70
2022-09-20T08:44:17.822Z,17.80
2022-09-20T08:49:27.070Z,18.10
2022-09-20T08:54:35.248Z,18.30
2022-09-20T08:59:37.475Z,18.60
2022-09-20T09:04:39.571Z,18.80
2022-09-20T09:09:47.324Z,18.90
2022-09-20T09:14:54.838Z,19.00
2022-09-20T09:20:21.589Z,19.00
2022-09-20T09:25:25.214Z,19.10
2022-09-20T09:30:31.256Z,19.20
2022-09-20T09:35:36.233Z,19.20
2022-09-20T09:40:48.850Z,19.30
2022-09-20T09:45:50.976Z,19.20
2022-09-20T09:51:17.854Z,19.40
2022-09-20T09:56:46.196Z,19.60
2022-09-20T10:02:26.341Z,19.80
2022-09-20T10:07:47.131Z,20.20
2022-09-20T10:13:08.944Z,20.20
2022-09-20T10:18:39.092Z,20.30
2022-09-20T10:24:03.073Z,20.30
2022-09-20T10:29:21.700Z,20.10
2022-09-20T10:34:42.269Z,20.10
2022-09-20T10:39:49.691Z,20.10
2022-09-20T10:45:42.127Z,20.30
2022-09-20T10:50:43.552Z,20.20
2022-09-20T10:56:21.581Z,20.20
2022-09-20T11:01:45.185Z,20.10
2022-09-20T11:06:49.995Z,20.10
2022-09-20T11:17:26.431Z,20.00
2022-09-20T11:22:40.802Z,19.90
2022-09-20T11:27:53.111Z,19.80
2022-09-20T11:33:06.031Z,19.80
2022-09-20T11:38:33.518Z,19.90
2022-09-20T11:43:38.999Z,20.10
2022-09-20T11:49:07.747Z,20.40
2022-09-20T11:54:28.192Z,21.00
2022-09-20T11:59:37.042Z,21.30
2022-09-20T12:04:45.881Z,22.00
2022-09-20T12:10:01.685Z,22.60
2022-09-20T12:15:26.400Z,22.80
2022-09-20T12:20:44.739Z,22.80
2022-09-20T12:26:20.929Z,22.50
2022-09-20T12:31:26.418Z,22.40
2022-09-20T12:41:54.207Z,21.60
2022-09-20T12:47:08.368Z,21.40
2022-09-20T12:52:42.434Z,21.30
2022-09-20T12:57:45.088Z,21.40
2022-09-20T13:02:53.878Z,22.20
2022-09-20T13:08:20.950Z,22.80
2022-09-20T13:13:41.692Z,22.90
2022-09-20T13:18:44.368Z,23.20
2022-09-20T13:23:52.236Z,23.20
2022-09-20T13:28:58.623Z,23.20
2022-09-20T13:34:34.003Z,23.10
2022-09-20T13:39:37.118Z,23.30
2022-09-20T13:44:39.663Z,23.50
2022-09-20T13:49:43.925Z,23.60
2022-09-20T13:54:47.071Z,23.30
2022-09-20T13:59:50.786Z,22.90
2022-09-20T14:04:56.470Z,22.80
2022-09-20T14:10:00.030Z,22.20
2022-09-20T14:15:08.522Z,22.20
2022-09-20T14:20:16.030Z,22.80
2022-09-20T14:25:25.310Z,23.40
2022-09-20T14:30:30.902Z,23.50
2022-09-20T14:35:33.540Z,23.90
2022-09-20T14:40:53.981Z,24.10
2022-09-20T14:46:01.649Z,24.20
2022-09-20T14:51:16.255Z,24.10
2022-09-20T14:56:34.438Z,23.90
2022-09-20T15:01:41.104Z,23.90
2022-09-20T15:06:43.326Z,23.70
2022-09-20T15:11:45.579Z,23.50
2022-09-20T15:16:47.852Z,23.10
2022-09-20T15:21:50.085Z,22.90
2022-09-20T15:26:52.669Z,22.80
2022-09-20T15:31:55.049Z,23.30
2022-09-20T15:36:57.580Z,23.30
2022-09-20T15:41:59.743Z,23.50
2022-09-20T15:47:03.110Z,23.50
2022-09-20T15:52:05.371Z,23.40
2022-09-20T15:57:07.996Z,23.10
2022-09-20T16:07:14.341Z,22.40
2022-09-20T16:12:17.008Z,22.10
2022-09-20T16:17:19.639Z,22.00
2022-09-20T16:22:22.221Z,21.80
2022-09-20T16:27:24.443Z,21.30
2022-09-20T16:32:26.833Z,21.10
2022-09-20T16:37:32.574Z,20.90
2022-09-20T16:42:34.773Z,20.70
2022-09-20T16:47:41.014Z,20.70
2022-09-20T16:52:43.291Z,20.30
2022-09-20T16:57:48.326Z,20.20
2022-09-20T17:02:51.232Z,20.00
2022-09-20T17:07:54.450Z,19.90
2022-09-20T17:12:59.428Z,19.80
2022-09-20T17:18:05.387Z,19.40
2022-09-20T17:23:09.265Z,19.10
2022-09-20T17:28:11.456Z,19.10
2022-09-20T17:33:14.597Z,18.90
2022-09-20T17:38:16.840Z,19.00
2022-09-20T17:43:19.113Z,18.30
2022-09-20T17:48:23.099Z,18.10
2022-09-20T17:53:25.255Z,18.00
2022-09-20T17:58:28.523Z,17.60
2022-09-20T18:03:34.982Z,17.30
2022-09-20T18:08:37.178Z,17.30
2022-09-20T18:13:39.394Z,16.90
2022-09-20T18:18:43.660Z,16.90
2022-09-20T18:23:47.297Z,16.70
2022-09-20T18:28:56.826Z,16.60
2022-09-20T18:34:00.844Z,16.40
2022-09-20T18:39:03.715Z,16.40
2022-09-20T18:44:07.637Z,16.30
2022-09-20T18:49:14.413Z,16.20
2022-09-20T18:54:17.831Z,16.10
2022-09-20T18:59:23.450Z,16.00
2022-09-20T19:04:40.747Z,15.90
2022-09-20T19:09:56.846Z,15.90
2022-09-20T19:15:07.879Z,15.80
2022-09-20T19:20:28.696Z,15.80
2022-09-20T19:25:44.091Z,15.80
2022-09-20T19:30:48.155Z,15.70
2022-09-20T19:35:51.540Z,15.70
2022-09-20T19:41:18.151Z,15.60
2022-09-20T19:47:01.588Z,15.60
2022-09-20T19:52:08.477Z,15.40
2022-09-20T19:57:33.122Z,15.30
2022-09-20T20:02:35.604Z,15.20
2022-09-20T20:08:07.134Z,15.10
2022-09-20T20:13:36.944Z,15.00
2022-09-20T20:18:50.664Z,14.90
2022-09-20T20:24:18.205Z,14.90
2022-09-20T20:29:20.485Z,14.80
2022-09-20T20:34:22.815Z,14.80
2022-09-20T20:39:25.000Z,14.80
2022-09-20T20:44:31.537Z,14.70
2022-09-20T20:49:34.632Z,14.70
2022-09-20T20:54:37.383Z,14.50
2022-09-20T20:59:39.612Z,14.40
2022-09-20T21:04:42.409Z,14.30
2022-09-20T21:09:46.106Z,14.20
2022-09-20T21:14:48.344Z,14.20
2022-09-20T21:19:50.566Z,14.00
2022-09-20T21:24:53.113Z,14.00
2022-09-20T21:29:55.414Z,13.90
2022-09-20T21:34:58.021Z,13.80
2022-09-20T21:40:00.398Z,13.80
2022-09-20T21:45:03.228Z,13.70
2022-09-20T21:50:06.240Z,13.60
2022-09-20T21:55:10.712Z,13.50
2022-09-20T22:00:13.707Z,13.40
2022-09-20T22:05:15.887Z,13.40
2022-09-20T22:10:18.127Z,13.30
2022-09-20T22:15:20.340Z,13.20
2022-09-20T22:20:22.846Z,13.00
2022-09-20T22:25:25.298Z,12.90
2022-09-20T22:30:27.685Z,12.90
2022-09-20T22:35:29.955Z,12.90
2022-09-20T22:40:32.218Z,12.70
2022-09-20T22:45:34.981Z,12.60
2022-09-20T22:50:37.221Z,12.60
2022-09-20T22:55:39.402Z,12.50
2022-09-20T23:00:41.648Z,12.40
2022-09-20T23:05:45.389Z,12.40
2022-09-20T23:10:47.826Z,12.40
2022-09-20T23:15:50.033Z,12.30
2022-09-20T23:21:00.257Z,12.20
2022-09-20T23:26:17.157Z,12.30
2022-09-20T23:31:19.432Z,12.20
2022-09-20T23:36:23.108Z,12.10
2022-09-20T23:41:27.034Z,12.00
2022-09-20T23:46:29.309Z,12.00
2022-09-20T23:51:32.625Z,12.00
2022-09-20T23:56:36.345Z,11.90
